WetterOnline ( https://www.wetteronline.de )

Wetter aktuell Rothaargebirge

Aktuelles Wetter: Kahler Asten (841m)

6-stündlich | Neueste Meldungen
Ortszeit Temperatur Wetter
Di, 28.06. 20:00 17.6° C leicht bewölkt
Di, 28.06. 14:00 16.4° C bewölkt
Di, 28.06. 8:00 11.6° C wolkenlos
Di, 28.06. 2:00 8.4° C Nebel
Mo, 27.06. 20:00 12.3° C bewölkt
Mo, 27.06. 14:00 15.4° C leichter Regen
Mo, 27.06. 8:00 15.8° C wolkig
Mo, 27.06. 2:00 13.0° C leichter Regen
Ortszeit Temperatur Wetter
Di, 28.06. 22:30 15.2° C wolkig
Di, 28.06. 22:20 15.2° C wolkig
Di, 28.06. 22:10 15.4° C bedeckt
Di, 28.06. 22:00 15.8° C leicht bewölkt
Di, 28.06. 21:50 15.8° C leicht bewölkt
Di, 28.06. 21:40 15.9° C wolkig
Di, 28.06. 21:30 16.4° C wolkig
Di, 28.06. 21:00 16.9° C leicht bewölkt
Di, 28.06. 20:30 17.1° C wolkig
Di, 28.06. 20:00 17.6° C leicht bewölkt
Di, 28.06. 19:30 17.7° C wolkig
Ortszeit Relative Feuchte Sichtweite
Di, 28.06. 20:00 51% >70 km
Di, 28.06. 14:00 53% 35 km
Di, 28.06. 8:00 73% 50 km
Di, 28.06. 2:00 98% 6 km
Mo, 27.06. 20:00 91% 35 km
Mo, 27.06. 14:00 94% 12 km
Mo, 27.06. 8:00 85% >70 km
Mo, 27.06. 2:00 99% 100 m
Ortszeit Relative Feuchte Sichtweite
Di, 28.06. 22:30 55% 60 km
Di, 28.06. 22:20 55% -
Di, 28.06. 22:10 54% -
Di, 28.06. 22:00 51% >70 km
Di, 28.06. 21:50 51% -
Di, 28.06. 21:40 52% -
Di, 28.06. 21:30 51% >70 km
Di, 28.06. 21:00 52% 65 km
Di, 28.06. 20:30 53% 45 km
Di, 28.06. 20:00 51% >70 km
Di, 28.06. 19:30 51% >70 km
Ortszeit Niederschlagsmenge Niederschlagsart
Di, 28.06. 20:00 0.1 l/m2 in 12 Std. Sprühregen
Di, 28.06. 14:00 0.0 l/m2 in 6 Std. -
Di, 28.06. 8:00 0.0 l/m2 in 12 Std. -
Di, 28.06. 2:00 0.0 l/m2 in 6 Std. -
Mo, 27.06. 20:00 0.1 l/m2 in 12 Std. Regen
Mo, 27.06. 14:00 0.1 l/m2 in 6 Std. Regen
Mo, 27.06. 8:00 26 l/m2 in 12 Std. Regen
Mo, 27.06. 2:00 18 l/m2 in 6 Std. Regen
Ortszeit Niederschlagsmenge Niederschlagsart
Di, 28.06. 22:30 0.0 l/m2 in 1 Std. -
Di, 28.06. 22:20 keine Meldung -
Di, 28.06. 22:10 keine Meldung -
Di, 28.06. 22:00 0.0 l/m2 in 1 Std. -
Di, 28.06. 21:50 keine Meldung -
Di, 28.06. 21:40 keine Meldung -
Di, 28.06. 21:30 0.0 l/m2 in 1 Std. -
Di, 28.06. 21:00 0.0 l/m2 in 1 Std. -
Di, 28.06. 20:30 0.0 l/m2 in 1 Std. -
Di, 28.06. 20:00 0.0 l/m2 in 1 Std. Sprühregen
Di, 28.06. 19:30 0.0 l/m2 in 1 Std. -
Ortszeit Stärke Spitze Richtung
km/h Bft. km/h Grad Sektor
Di, 28.06. 20:00 9 2 28 110° O
Di, 28.06. 14:00 6 1 20 10° N
Di, 28.06. 8:00 9 2 30 270° W
Di, 28.06. 2:00 20 4 39 280° W
Mo, 27.06. 20:00 28 4 50 270° W
Mo, 27.06. 14:00 15 3 28 260° W
Mo, 27.06. 8:00 11 2 39 270° W
Mo, 27.06. 2:00 18 3 32 330° NW
Ortszeit Stärke Spitze Richtung
km/h Bft. km/h Grad Sektor
Di, 28.06. 22:30 15 3 20 70° O
Di, 28.06. 22:20 15 3 - 70° O
Di, 28.06. 22:10 15 3 - 70° O
Di, 28.06. 22:00 14 3 18 90° O
Di, 28.06. 21:50 14 3 - 90° O
Di, 28.06. 21:40 13 3 - 90° O
Di, 28.06. 21:30 11 2 18 80° O
Di, 28.06. 21:00 11 2 18 100° O
Di, 28.06. 20:30 9 2 17 90° O
Di, 28.06. 20:00 9 2 22 110° O
Di, 28.06. 19:30 11 2 22 100° O
Ortszeit Untergrenze Bedeckung Gattung
total tief tief mittel hoch
Di, 28.06. 20:00 8400 m 8/8 0/8 - - -
Di, 28.06. 14:00 1290 m 7/8 7/8 - - -
Di, 28.06. 8:00 - 0/8 0/8 - - -
Di, 28.06. 2:00 30 m 2/8 2/8 - - -
Mo, 27.06. 20:00 390 m 7/8 7/8 - - -
Mo, 27.06. 14:00 150 m 8/8 8/8 - - -
Mo, 27.06. 8:00 600 m 8/8 1/8 - - -
Mo, 27.06. 2:00 <30 m 7/8 0/8 - - -
Ortszeit Bedeckungsgrad in Achtel und Wolkenuntergrenze
Di, 28.06. 22:30 8(7500m) 8(9000m) 8(9000m)
Di, 28.06. 22:20 8(7500m) 8(9000m) 8(9000m)
Di, 28.06. 22:10 8
Di, 28.06. 22:00 6(7800m) 6(9000m)
Di, 28.06. 21:50 6(7800m) 6(9000m)
Di, 28.06. 21:40 5
Di, 28.06. 21:30 8(7800m) 8(9000m)
Di, 28.06. 21:00 8(7800m)
Di, 28.06. 20:30 8(8100m)
Di, 28.06. 20:00 5(8400m) 8(9000m)
Di, 28.06. 19:30 8(9000m)
Ortszeit Stationsdruck (hPa) Tendenz (hPa in 3 Std.)
Di, 28.06. 20:00 921 - 0,8
Di, 28.06. 14:00 924 - 0,6
Di, 28.06. 8:00 924 + 0,7
Di, 28.06. 2:00 922 + 0,6
Mo, 27.06. 20:00 921 + 1,0
Mo, 27.06. 14:00 919 + 1,1
Mo, 27.06. 8:00 917 + 0,3
Mo, 27.06. 2:00 918 - 0,2
Ortszeit Stationsdruck (hPa) Tendenz (hPa in 3 Std.)
Di, 28.06. 22:30 921 - 0,2
Di, 28.06. 22:20 921 keine Meldung
Di, 28.06. 22:10 921 keine Meldung
Di, 28.06. 22:00 921 - 0,5
Di, 28.06. 21:50 921 keine Meldung
Di, 28.06. 21:40 921 keine Meldung
Di, 28.06. 21:30 921 - 0,9
Di, 28.06. 21:00 921 - 0,7
Di, 28.06. 20:30 921 - 0,8
Di, 28.06. 20:00 921 - 0,8
Di, 28.06. 19:30 922 - 1,0
Ortszeit Schneehöhe (cm)
Di, 28.06. 20:00 -
Di, 28.06. 14:00 -
Di, 28.06. 8:00 -
Di, 28.06. 2:00 -
Mo, 27.06. 20:00 -
Mo, 27.06. 14:00 -
Mo, 27.06. 8:00 -
Mo, 27.06. 2:00 -
Ortszeit Schneehöhe (cm)
Di, 28.06. 22:30 -
Di, 28.06. 22:20 -
Di, 28.06. 22:10 -
Di, 28.06. 22:00 -
Di, 28.06. 21:50 -
Di, 28.06. 21:40 -
Di, 28.06. 21:30 -
Di, 28.06. 21:00 -
Di, 28.06. 20:30 -
Di, 28.06. 20:00 -
Di, 28.06. 19:30 -
Link zu dieser Seite / Seite empfehlen

Das Wetter in ...